Time;durP1;ratioP1;P1;durP2;ratioP2;P2;SDS_P1;SDS_P2;PMS_P1;PMS_P2;Temp;Humidity;BMP_temperature;BMP_pressure;BME280_temperature;BME280_humidity;BME280_pressure;Samples;Min_cycle;Max_cycle;Signal;HPM_P1;HPM_P2
2021/03/20 00:01:13;;;;;;;;;;;;;;;-5.67;77.97;95782.73;1758354;82;20126;-63
2021/03/20 00:03:41;;;;;;;;;;;;;;;-5.54;77.74;95789.73;1758094;82;20415;-62
2021/03/20 00:06:09;;;;;;;;;;;;;;;-5.59;77.00;95792.46;1728337;83;20230;-62
2021/03/20 00:08:38;;;;;;;;;;;;;;;-5.53;77.12;95785.05;1728478;83;20140;-62
2021/03/20 00:11:06;;;;;;;;;;;;;;;-5.48;76.88;95788.70;1728289;83;20179;-62
2021/03/20 00:13:34;;;;;;;;;;;;;;;-5.47;76.58;95782.74;1728329;83;20252;-62
2021/03/20 00:16:02;;;;;;;;;;;;;;;-5.50;76.36;95779.63;1728425;83;20497;-63
2021/03/20 00:18:29;;;;;;;;;;;;;;;-5.55;76.49;95779.83;1728296;83;20537;-62
2021/03/20 00:20:57;;;;;;;;;;;;;;;-5.72;76.63;95780.73;1728430;83;20128;-62
2021/03/20 00:23:25;;;;;;;;;;;;;;;-5.84;75.96;95782.36;1728384;83;20135;-62
2021/03/20 00:25:52;;;;;;;;;;;;;;;-5.81;76.22;95784.19;1728274;83;20135;-62
2021/03/20 00:28:22;;;;;;;;;;;;;;;-5.94;76.40;95784.93;1722703;83;20481;-62
2021/03/20 00:30:52;;;;;;;;;;;;;;;-6.06;76.87;95784.34;1692797;83;20144;-63
2021/03/20 00:33:19;;;;;;;;;;;;;;;-6.00;77.10;95787.59;1720726;83;20139;-62
2021/03/20 00:35:47;;;;;;;;;;;;;;;-6.05;76.82;95786.50;1720770;83;20413;-62
2021/03/20 00:38:16;;;;;;;;;;;;;;;-5.96;76.96;95787.83;1694979;85;20261;-63
2021/03/20 00:40:44;;;;;;;;;;;;;;;-5.87;76.74;95786.08;1720611;83;20136;-62
2021/03/20 00:43:12;;;;;;;;;;;;;;;-5.78;76.60;95790.75;1720540;83;20145;-62
2021/03/20 00:45:40;;;;;;;;;;;;;;;-5.75;76.20;95786.62;1720584;83;20435;-62
2021/03/20 00:48:14;;;;;;;;;;;;;;;-5.99;75.47;95785.53;1695087;85;20225;-62
2021/03/20 00:50:42;;;;;;;;;;;;;;;-6.23;76.09;95789.95;1720884;83;20164;-62
2021/03/20 00:53:10;;;;;;;;;;;;;;;-6.14;76.62;95786.55;1720509;83;20144;-62
2021/03/20 00:55:38;;;;;;;;;;;;;;;-6.07;77.00;95786.45;1720984;83;20152;-62
2021/03/20 00:58:24;;;;;;;;;;;;;;;-6.13;77.43;95784.86;1720580;83;20164;-62
2021/03/20 01:00:57;;;;;;;;;;;;;;;-6.22;76.64;95785.31;1720647;83;20430;-63
2021/03/20 01:03:24;;;;;;;;;;;;;;;-6.32;77.17;95780.54;1720589;83;20430;-62
2021/03/20 01:05:52;;;;;;;;;;;;;;;-6.37;76.92;95784.57;1720704;83;20120;-62
2021/03/20 01:08:20;;;;;;;;;;;;;;;-6.27;76.79;95779.45;1720533;83;20418;-62
2021/03/20 01:10:48;;;;;;;;;;;;;;;-6.31;76.48;95778.44;1720873;83;20140;-62
2021/03/20 01:13:17;;;;;;;;;;;;;;;-6.19;76.65;95781.59;1720591;83;20405;-62
2021/03/20 01:15:44;;;;;;;;;;;;;;;-6.15;76.22;95786.09;1720510;83;20136;-62
2021/03/20 01:18:13;;;;;;;;;;;;;;;-6.28;75.80;95782.84;1720594;83;20141;-62
2021/03/20 01:20:41;;;;;;;;;;;;;;;-6.39;75.88;95787.46;1720629;83;20124;-62
2021/03/20 01:23:09;;;;;;;;;;;;;;;-6.36;76.04;95785.91;1695228;85;20127;-62
2021/03/20 01:25:36;;;;;;;;;;;;;;;-6.53;76.65;95786.77;1720657;83;20411;-62
2021/03/20 01:28:05;;;;;;;;;;;;;;;-6.66;76.85;95789.13;1707450;84;20233;-62
2021/03/20 01:30:35;;;;;;;;;;;;;;;-6.67;77.17;95796.36;1718581;84;20141;-62
2021/03/20 01:33:03;;;;;;;;;;;;;;;-6.69;77.32;95794.12;1718762;84;20132;-62
2021/03/20 01:35:31;;;;;;;;;;;;;;;-6.77;76.90;95798.87;1718553;84;20134;-62
2021/03/20 01:38:00;;;;;;;;;;;;;;;-6.69;76.94;95801.81;1718482;84;20133;-62
2021/03/20 01:40:31;;;;;;;;;;;;;;;-6.60;76.94;95790.73;1718516;84;20438;-62
2021/03/20 01:42:59;;;;;;;;;;;;;;;-6.71;77.02;95794.84;1718726;84;20146;-62
2021/03/20 01:45:29;;;;;;;;;;;;;;;-6.79;76.69;95797.03;1718517;84;20141;-62
2021/03/20 01:48:00;;;;;;;;;;;;;;;-6.85;76.80;95797.61;1718825;84;20133;-62
2021/03/20 01:50:37;;;;;;;;;;;;;;;-6.69;76.99;95797.09;1750362;82;20143;-62
2021/03/20 01:53:26;;;;;;;;;;;;;;;-6.69;76.69;95797.97;1744616;82;20177;-62
2021/03/20 01:55:53;;;;;;;;;;;;;;;-6.70;77.24;95800.06;1731683;83;20440;-62
2021/03/20 01:58:21;;;;;;;;;;;;;;;-6.65;76.87;95798.61;1716701;83;20127;-62
2021/03/20 02:00:50;;;;;;;;;;;;;;;-6.66;76.93;95800.67;1735511;83;20238;-62
2021/03/20 02:03:20;;;;;;;;;;;;;;;-6.78;76.72;95807.75;1735056;83;20143;-63
2021/03/20 02:05:48;;;;;;;;;;;;;;;-6.82;76.45;95805.45;1735311;83;20424;-62
2021/03/20 02:08:18;;;;;;;;;;;;;;;-6.86;76.51;95805.21;1716495;83;20195;-62
2021/03/20 02:10:47;;;;;;;;;;;;;;;-6.92;76.47;95806.20;1735354;83;20234;-62
2021/03/20 02:13:20;;;;;;;;;;;;;;;-6.92;76.62;95811.33;1735275;83;20159;-62
2021/03/20 02:15:57;;;;;;;;;;;;;;;-6.88;76.70;95807.72;1735051;82;20150;-63
2021/03/20 02:18:44;;;;;;;;;;;;;;;-6.85;76.40;95802.73;1734764;82;20127;-62
2021/03/20 02:21:23;;;;;;;;;;;;;;;-6.95;76.76;95808.20;1735296;83;20422;-62
2021/03/20 02:23:57;;;;;;;;;;;;;;;-6.98;76.45;95810.21;1735289;82;20194;-62
2021/03/20 02:26:51;;;;;;;;;;;;;;;-6.95;76.56;95810.77;1734533;82;20138;-62
2021/03/20 02:29:39;;;;;;;;;;;;;;;-7.04;76.63;95814.13;1714511;82;20420;-62
2021/03/20 02:32:36;;;;;;;;;;;;;;;-6.99;76.94;95819.97;1745093;82;20146;-62
2021/03/20 02:35:24;;;;;;;;;;;;;;;-6.86;76.71;95821.89;1745183;82;20166;-62
2021/03/20 02:37:54;;;;;;;;;;;;;;;-7.00;76.26;95825.91;1745276;82;20407;-62
2021/03/20 02:40:30;;;;;;;;;;;;;;;-7.02;76.47;95823.67;1741409;82;20408;-62
2021/03/20 02:43:07;;;;;;;;;;;;;;;-7.00;76.39;95827.20;1745374;82;20135;-62
2021/03/20 02:45:37;;;;;;;;;;;;;;;-6.86;76.59;95824.05;1741142;82;20126;-62
2021/03/20 02:48:14;;;;;;;;;;;;;;;-6.72;76.46;95819.63;1744606;82;20148;-62
2021/03/20 02:50:45;;;;;;;;;;;;;;;-6.77;75.65;95824.93;1745242;82;20135;-62
2021/03/20 02:53:20;;;;;;;;;;;;;;;-6.94;75.27;95827.03;1744687;82;20138;-62
2021/03/20 02:55:59;;;;;;;;;;;;;;;-6.78;75.34;95820.21;1852654;77;20103;-62
2021/03/20 02:58:30;;;;;;;;;;;;;;;-6.83;75.32;95828.08;1825277;79;20255;-62
2021/03/20 03:01:05;;;;;;;;;;;;;;;-6.86;75.40;95830.45;1825176;78;20437;-62
2021/03/20 03:03:35;;;;;;;;;;;;;;;-7.08;75.34;95837.84;1825389;79;20117;-62
2021/03/20 03:06:31;;;;;;;;;;;;;;;-7.07;75.50;95837.94;1794299;79;20405;-62
2021/03/20 03:09:01;;;;;;;;;;;;;;;-7.11;76.28;95840.25;1825079;79;20121;-62
2021/03/20 03:11:40;;;;;;;;;;;;;;;-7.22;76.29;95840.98;1793942;79;20129;-62
2021/03/20 03:14:23;;;;;;;;;;;;;;;-7.20;76.41;95844.52;1825319;78;20117;-62
2021/03/20 03:16:54;;;;;;;;;;;;;;;-7.17;76.32;95843.39;1790935;79;20406;-62
2021/03/20 03:19:28;;;;;;;;;;;;;;;-7.23;76.02;95841.77;1825236;78;20237;-62
2021/03/20 03:21:57;;;;;;;;;;;;;;;-7.35;75.67;95842.42;1818852;79;20121;-62
2021/03/20 03:24:26;;;;;;;;;;;;;;;-7.49;75.75;95845.11;1825210;79;20137;-61
2021/03/20 03:27:00;;;;;;;;;;;;;;;-7.50;75.88;95840.80;1825352;78;20220;-62
2021/03/20 03:29:29;;;;;;;;;;;;;;;-7.53;75.89;95837.20;1825376;79;20446;-62
2021/03/20 03:32:19;;;;;;;;;;;;;;;-7.65;76.02;95842.53;1825433;79;20141;-62
2021/03/20 03:34:56;;;;;;;;;;;;;;;-7.58;76.76;95845.00;1825113;79;20185;-62
2021/03/20 03:37:33;;;;;;;;;;;;;;;-7.48;76.78;95844.73;1825215;79;20136;-62
2021/03/20 03:40:08;;;;;;;;;;;;;;;-7.41;76.32;95847.70;1825134;78;20486;-62
2021/03/20 03:42:37;;;;;;;;;;;;;;;-7.35;76.26;95857.40;1825162;79;20526;-62
2021/03/20 03:45:11;;;;;;;;;;;;;;;-7.43;76.26;95854.83;1825745;79;20136;-62
2021/03/20 03:47:39;;;;;;;;;;;;;;;-7.58;75.86;95856.16;1825430;79;20117;-62
2021/03/20 03:50:10;;;;;;;;;;;;;;;-7.61;76.16;95854.69;1825087;78;20464;-62
2021/03/20 03:52:37;;;;;;;;;;;;;;;-7.58;76.37;95856.16;1825429;79;20231;-62
2021/03/20 03:55:07;;;;;;;;;;;;;;;-7.59;76.46;95859.50;1796110;79;20414;-62
2021/03/20 03:57:50;;;;;;;;;;;;;;;-7.53;76.62;95864.98;1799146;79;20129;-62
2021/03/20 04:00:21;;;;;;;;;;;;;;;-7.57;76.58;95868.16;1745465;82;20439;-62
2021/03/20 04:03:16;;;;;;;;;;;;;;;-7.46;76.32;95870.02;1814871;79;20133;-62
2021/03/20 04:05:54;;;;;;;;;;;;;;;-7.46;75.71;95873.86;1815160;79;20137;-62
2021/03/20 04:08:58;;;;;;;;;;;;;;;-7.59;75.71;95880.41;1813703;79;20121;-62
2021/03/20 04:11:34;;;;;;;;;;;;;;;-7.67;75.78;95878.30;1812567;79;20426;-62
2021/03/20 04:14:15;;;;;;;;;;;;;;;-7.51;75.85;95876.58;1814455;79;20157;-62
2021/03/20 04:17:03;;;;;;;;;;;;;;;-7.52;75.65;95875.70;1814587;79;20415;-62
2021/03/20 04:19:35;;;;;;;;;;;;;;;-7.76;75.30;95886.78;1814770;79;20118;-62
2021/03/20 04:22:24;;;;;;;;;;;;;;;-7.88;75.28;95889.94;1739647;82;20232;-62
2021/03/20 04:24:55;;;;;;;;;;;;;;;-7.96;75.39;95897.56;1813699;79;20121;-62
2021/03/20 04:27:26;;;;;;;;;;;;;;;-7.90;75.81;95889.84;1814329;79;20133;-62
2021/03/20 04:30:04;;;;;;;;;;;;;;;-7.86;76.09;95882.83;1814479;79;20400;-62
2021/03/20 04:32:34;;;;;;;;;;;;;;;-7.81;76.00;95888.20;1814918;79;20136;-62
2021/03/20 04:35:21;;;;;;;;;;;;;;;-7.79;76.02;95885.71;1789831;79;20408;-62
2021/03/20 04:37:50;;;;;;;;;;;;;;;-7.73;76.22;95892.48;1813865;79;20403;-62
2021/03/20 04:40:36;;;;;;;;;;;;;;;-7.76;76.17;95891.91;1814562;79;20121;-62
2021/03/20 04:43:05;;;;;;;;;;;;;;;-7.66;76.11;95895.46;1814739;79;20128;-62
2021/03/20 04:45:38;;;;;;;;;;;;;;;-7.73;75.62;95902.72;1814575;79;20129;-62
2021/03/20 04:48:29;;;;;;;;;;;;;;;-7.81;75.98;95906.14;1814445;79;20138;-62
2021/03/20 04:51:09;;;;;;;;;;;;;;;-7.82;75.23;95908.60;1814358;79;20176;-62
2021/03/20 04:53:36;;;;;;;;;;;;;;;-7.82;75.49;95903.08;1814769;79;20161;-62
2021/03/20 04:56:06;;;;;;;;;;;;;;;-7.71;76.08;95914.82;1822944;78;20390;-62
2021/03/20 04:58:46;;;;;;;;;;;;;;;-7.69;76.25;95910.64;1824474;79;20402;-62
2021/03/20 05:01:43;;;;;;;;;;;;;;;-7.64;75.54;95912.18;1824480;79;20153;-62
2021/03/20 05:04:27;;;;;;;;;;;;;;;-7.76;75.04;95914.96;1824815;79;20140;-62
2021/03/20 05:06:58;;;;;;;;;;;;;;;-7.75;75.42;95919.68;1824535;79;20141;-62
2021/03/20 05:09:27;;;;;;;;;;;;;;;-7.80;75.39;95918.55;1824433;79;20125;-62
2021/03/20 05:12:00;;;;;;;;;;;;;;;-7.77;75.99;95922.55;1795107;79;20117;-62
2021/03/20 05:14:31;;;;;;;;;;;;;;;-7.45;75.56;95918.81;1824483;79;20148;-62
2021/03/20 05:17:01;;;;;;;;;;;;;;;-7.16;75.39;95914.37;1824457;79;20132;-62
2021/03/20 05:19:29;;;;;;;;;;;;;;;-7.16;74.67;95916.05;1824345;79;20117;-62
2021/03/20 05:21:57;;;;;;;;;;;;;;;-7.03;74.78;95912.97;1824734;79;20421;-62
2021/03/20 05:24:28;;;;;;;;;;;;;;;-7.06;74.11;95917.03;1824486;79;20141;-62
2021/03/20 05:26:57;;;;;;;;;;;;;;;-7.14;74.18;95914.46;1824490;79;20117;-62
2021/03/20 05:29:25;;;;;;;;;;;;;;;-7.17;74.70;95919.03;1824637;79;20117;-62
2021/03/20 05:31:53;;;;;;;;;;;;;;;-7.17;75.54;95919.03;1824621;79;20391;-62
2021/03/20 05:34:26;;;;;;;;;;;;;;;-7.14;76.10;95924.31;1824470;79;20145;-62
2021/03/20 05:36:54;;;;;;;;;;;;;;;-7.07;76.21;95920.41;1824507;79;20220;-62
2021/03/20 05:39:21;;;;;;;;;;;;;;;-6.92;75.86;95922.91;1824402;79;20414;-62
2021/03/20 05:41:56;;;;;;;;;;;;;;;-6.83;76.34;95925.94;1824325;79;20167;-62
2021/03/20 05:45:01;;;;;;;;;;;;;;;-6.63;76.51;95923.13;1824711;79;20136;-62
2021/03/20 05:47:38;;;;;;;;;;;;;;;-6.60;75.73;95922.91;1824442;79;20137;-62
2021/03/20 05:50:09;;;;;;;;;;;;;;;-6.53;76.62;95918.95;1816337;79;20141;-62
2021/03/20 05:52:43;;;;;;;;;;;;;;;-6.28;76.18;95918.93;1824538;79;20152;-62
2021/03/20 05:55:26;;;;;;;;;;;;;;;-6.21;75.64;95921.00;1825383;78;20156;-62
2021/03/20 05:58:17;;;;;;;;;;;;;;;-6.06;75.21;95921.77;1828225;78;20239;-62
2021/03/20 06:01:05;;;;;;;;;;;;;;;-5.96;75.32;95921.42;1828304;78;20117;-62
2021/03/20 06:04:10;;;;;;;;;;;;;;;-5.69;74.66;95915.44;1828156;78;20224;-62
2021/03/20 06:06:44;;;;;;;;;;;;;;;-5.54;74.25;95908.86;1828337;78;20220;-62
2021/03/20 06:09:49;;;;;;;;;;;;;;;-5.47;74.55;95911.30;1827972;78;20216;-62
2021/03/20 06:12:19;;;;;;;;;;;;;;;-5.37;74.50;95908.77;1828296;78;20148;-62
2021/03/20 06:15:05;;;;;;;;;;;;;;;-5.18;73.98;95908.82;1828440;78;20168;-62
2021/03/20 06:17:39;;;;;;;;;;;;;;;-5.06;73.18;95913.66;1817821;78;20137;-62
2021/03/20 06:20:18;;;;;;;;;;;;;;;-5.03;72.87;95912.51;1828332;78;20544;-62
2021/03/20 06:23:09;;;;;;;;;;;;;;;-4.96;72.41;95913.27;1828180;78;20417;-62
2021/03/20 06:25:59;;;;;;;;;;;;;;;-4.92;72.35;95919.42;1827925;78;20465;-62
2021/03/20 06:28:42;;;;;;;;;;;;;;;-4.73;72.35;95918.16;1828359;78;20129;-62
2021/03/20 06:31:15;;;;;;;;;;;;;;;-4.34;71.81;95915.56;1768825;78;20226;-62
2021/03/20 06:33:49;;;;;;;;;;;;;;;-4.07;70.79;95909.43;1819927;78;20225;-62
2021/03/20 06:36:23;;;;;;;;;;;;;;;-3.84;69.79;95911.67;1827959;78;20249;-63
2021/03/20 06:39:06;;;;;;;;;;;;;;;-3.60;69.55;95914.39;1828223;78;20152;-62
2021/03/20 06:41:46;;;;;;;;;;;;;;;-3.37;69.04;95915.31;1828076;78;20140;-62
2021/03/20 06:44:40;;;;;;;;;;;;;;;-3.18;68.66;95913.02;1816245;78;20133;-62
2021/03/20 06:47:22;;;;;;;;;;;;;;;-2.94;67.83;95913.52;1828154;78;20224;-62
2021/03/20 06:50:18;;;;;;;;;;;;;;;-2.79;67.43;95907.64;1828424;78;20212;-62
2021/03/20 06:52:52;;;;;;;;;;;;;;;-2.69;66.90;95907.58;1827480;78;20133;-62
2021/03/20 06:55:28;;;;;;;;;;;;;;;-2.53;66.92;95901.26;1826433;78;20158;-62
2021/03/20 06:57:59;;;;;;;;;;;;;;;-2.38;65.86;95909.56;1824419;79;20170;-62
2021/03/20 07:00:29;;;;;;;;;;;;;;;-2.08;65.49;95911.48;1821828;79;20157;-62
2021/03/20 07:03:13;;;;;;;;;;;;;;;-1.90;64.54;95906.05;1824707;79;20172;-62
2021/03/20 07:05:48;;;;;;;;;;;;;;;-1.76;63.38;95914.75;1824607;79;20137;-62
2021/03/20 07:08:53;;;;;;;;;;;;;;;-1.54;63.66;95913.77;1824660;79;20117;-62
2021/03/20 07:11:36;;;;;;;;;;;;;;;-1.44;62.61;95913.63;1824011;79;20136;-62
2021/03/20 07:14:12;;;;;;;;;;;;;;;-1.36;62.76;95909.98;1821094;79;20136;-62
2021/03/20 07:16:55;;;;;;;;;;;;;;;-1.27;61.87;95919.34;1824471;79;20418;-62
2021/03/20 07:19:23;;;;;;;;;;;;;;;-1.20;61.35;95914.84;1804376;79;20148;-62
2021/03/20 07:22:00;;;;;;;;;;;;;;;-1.02;61.11;95917.54;1824666;79;20145;-62
2021/03/20 07:24:46;;;;;;;;;;;;;;;-0.70;60.43;95915.51;1824424;79;20152;-62
2021/03/20 07:27:18;;;;;;;;;;;;;;;-0.52;59.45;95909.11;1824105;78;20133;-62
2021/03/20 07:29:50;;;;;;;;;;;;;;;-0.51;59.73;95910.86;1824500;79;20137;-62
2021/03/20 07:32:21;;;;;;;;;;;;;;;-0.47;59.77;95905.80;1824583;79;20168;-62
2021/03/20 07:34:48;;;;;;;;;;;;;;;-0.23;60.35;95903.44;1816235;79;20129;-62
2021/03/20 07:37:22;;;;;;;;;;;;;;;-0.03;57.15;95896.20;1824629;79;20137;-62
2021/03/20 07:39:55;;;;;;;;;;;;;;;0.26;57.63;95896.11;1824188;79;20121;-62
2021/03/20 07:42:31;;;;;;;;;;;;;;;0.30;56.59;95897.50;1824527;79;20391;-62
2021/03/20 07:45:03;;;;;;;;;;;;;;;0.53;55.61;95907.19;1821341;79;20140;-62
2021/03/20 07:47:40;;;;;;;;;;;;;;;0.80;55.83;95907.39;1824699;79;20379;-62
2021/03/20 07:50:20;;;;;;;;;;;;;;;0.95;52.55;95910.34;1824561;79;20129;-62
2021/03/20 07:52:55;;;;;;;;;;;;;;;1.12;52.52;95911.17;1824919;79;20132;-62
2021/03/20 07:55:23;;;;;;;;;;;;;;;1.16;50.83;95912.58;1823994;78;20149;-62
2021/03/20 07:58:00;;;;;;;;;;;;;;;1.22;50.51;95908.81;1828687;78;20128;-62
2021/03/20 08:00:36;;;;;;;;;;;;;;;1.49;50.32;95904.64;1828127;78;20137;-62
2021/03/20 08:03:16;;;;;;;;;;;;;;;1.59;48.54;95903.12;1828458;78;20129;-62
2021/03/20 08:05:44;;;;;;;;;;;;;;;1.78;49.18;95915.19;1826390;78;20232;-62
2021/03/20 08:08:25;;;;;;;;;;;;;;;1.99;49.29;95910.83;1828322;78;20487;-62
2021/03/20 08:10:56;;;;;;;;;;;;;;;2.13;47.97;95910.25;1828320;78;20133;-62
2021/03/20 08:13:27;;;;;;;;;;;;;;;2.19;47.11;95910.78;1828125;78;20121;-62
2021/03/20 08:15:56;;;;;;;;;;;;;;;2.25;46.48;95911.34;1827910;78;20133;-62
2021/03/20 08:18:28;;;;;;;;;;;;;;;2.41;47.85;95913.36;1828229;78;20117;-62
2021/03/20 08:21:16;;;;;;;;;;;;;;;2.53;46.78;95916.61;1828464;78;20422;-63
2021/03/20 08:24:09;;;;;;;;;;;;;;;2.71;45.66;95912.14;1828346;78;20144;-62
2021/03/20 08:26:52;;;;;;;;;;;;;;;2.68;45.15;95916.88;1807603;78;20406;-62
2021/03/20 08:29:43;;;;;;;;;;;;;;;2.92;44.24;95917.69;1828603;78;20117;-63
2021/03/20 08:32:46;;;;;;;;;;;;;;;3.09;43.05;95916.66;1828341;78;20224;-63
2021/03/20 08:35:24;;;;;;;;;;;;;;;3.19;44.07;95919.86;1828791;78;20137;-63
2021/03/20 08:37:58;;;;;;;;;;;;;;;3.28;42.33;95922.17;1814840;78;20223;-63
2021/03/20 08:40:32;;;;;;;;;;;;;;;3.43;40.70;95927.18;1764965;81;20140;-63
2021/03/20 08:43:13;;;;;;;;;;;;;;;3.51;40.91;95919.89;1827910;78;20509;-63
2021/03/20 08:45:59;;;;;;;;;;;;;;;3.73;39.42;95925.85;1828360;78;20128;-62
2021/03/20 08:48:43;;;;;;;;;;;;;;;3.79;34.96;95928.96;1828303;78;20257;-63
2021/03/20 08:51:26;;;;;;;;;;;;;;;3.81;35.00;95924.21;1828166;78;20223;-63
2021/03/20 08:54:06;;;;;;;;;;;;;;;4.04;35.34;95923.19;1828259;78;20217;-63
2021/03/20 08:56:52;;;;;;;;;;;;;;;4.10;33.68;95926.28;1818696;78;20137;-63
2021/03/20 08:59:41;;;;;;;;;;;;;;;4.32;37.18;95924.80;1811592;79;20130;-63
2021/03/20 09:02:26;;;;;;;;;;;;;;;4.56;33.89;95929.39;1811821;79;20161;-63
2021/03/20 09:05:07;;;;;;;;;;;;;;;4.71;34.02;95936.51;1811437;79;20130;-62
2021/03/20 09:07:55;;;;;;;;;;;;;;;4.85;33.12;95940.14;1811879;79;20153;-63
2021/03/20 09:10:35;;;;;;;;;;;;;;;4.96;32.53;95935.89;1811672;79;20419;-63
2021/03/20 09:13:24;;;;;;;;;;;;;;;5.11;35.00;95936.86;1811805;79;20138;-62
2021/03/20 09:16:07;;;;;;;;;;;;;;;5.07;33.46;95939.90;1850719;77;20237;-60
2021/03/20 09:18:37;;;;;;;;;;;;;;;5.09;33.21;95947.33;1820454;79;20133;-63
2021/03/20 09:21:06;;;;;;;;;;;;;;;5.39;34.46;95948.41;1820551;78;20418;-63
2021/03/20 09:23:43;;;;;;;;;;;;;;;5.33;32.57;95940.53;1820592;78;20129;-63
2021/03/20 09:26:14;;;;;;;;;;;;;;;5.27;31.47;95946.59;1820461;78;20388;-63
2021/03/20 09:28:56;;;;;;;;;;;;;;;5.42;33.17;95950.62;1820853;78;20225;-63
2021/03/20 09:31:35;;;;;;;;;;;;;;;5.64;31.84;95949.45;1820761;79;20137;-63
2021/03/20 09:34:19;;;;;;;;;;;;;;;5.77;31.58;95956.94;1820464;79;20138;-63
2021/03/20 09:36:49;;;;;;;;;;;;;;;5.99;32.82;95953.60;1800755;79;20149;-63
2021/03/20 09:39:38;;;;;;;;;;;;;;;6.05;30.58;95944.48;1791247;79;20427;-63
2021/03/20 09:42:28;;;;;;;;;;;;;;;6.03;32.37;95948.83;1817803;78;20426;-63
2021/03/20 09:45:12;;;;;;;;;;;;;;;6.11;31.41;95952.80;1820678;79;20403;-63
2021/03/20 09:47:54;;;;;;;;;;;;;;;6.44;31.19;95948.55;1820607;78;20387;-63
2021/03/20 09:50:29;;;;;;;;;;;;;;;6.48;32.03;95952.50;1820559;78;20160;-63
2021/03/20 09:53:02;;;;;;;;;;;;;;;6.57;31.55;95950.77;1820388;79;20447;-63
2021/03/20 09:55:33;;;;;;;;;;;;;;;6.91;30.62;95955.66;1820573;78;20137;-63
2021/03/20 09:58:04;;;;;;;;;;;;;;;6.98;29.63;95950.86;1820491;79;20161;-63
2021/03/20 10:00:54;;;;;;;;;;;;;;;7.35;28.62;95945.61;1820836;79;20259;-63
2021/03/20 10:03:43;;;;;;;;;;;;;;;7.41;30.66;95948.25;1820828;78;20137;-63
2021/03/20 10:06:18;;;;;;;;;;;;;;;7.43;30.86;95946.91;1820598;79;20474;-60
2021/03/20 10:09:01;;;;;;;;;;;;;;;7.46;30.14;95948.22;1820664;79;20122;-61
2021/03/20 10:11:40;;;;;;;;;;;;;;;7.29;31.44;95948.25;1807340;79;20132;-60
2021/03/20 10:14:30;;;;;;;;;;;;;;;7.17;32.02;95954.80;1822034;78;20136;-61
2021/03/20 10:17:22;;;;;;;;;;;;;;;7.11;32.02;95948.68;1832335;78;20156;-63
2021/03/20 10:19:53;;;;;;;;;;;;;;;7.58;30.82;95940.33;1832519;78;20477;-63
2021/03/20 10:22:30;;;;;;;;;;;;;;;7.73;30.78;95944.23;1830184;78;20157;-63
2021/03/20 10:24:57;;;;;;;;;;;;;;;7.73;31.35;95948.63;1832332;78;20124;-63
2021/03/20 10:27:37;;;;;;;;;;;;;;;7.96;31.30;95943.31;1831838;78;20140;-63
2021/03/20 10:30:17;;;;;;;;;;;;;;;8.02;30.63;95940.69;1832045;78;20152;-63
2021/03/20 10:33:04;;;;;;;;;;;;;;;8.33;29.75;95937.48;1831989;78;20132;-63
2021/03/20 10:35:35;;;;;;;;;;;;;;;7.98;30.21;95940.25;1831704;78;20411;-63
2021/03/20 10:38:17;;;;;;;;;;;;;;;7.92;30.61;95934.58;1832032;78;20160;-63
2021/03/20 10:40:44;;;;;;;;;;;;;;;7.73;30.45;95941.61;1831959;78;20157;-63
2021/03/20 10:43:14;;;;;;;;;;;;;;;8.29;31.37;95942.34;1831520;78;20117;-63
2021/03/20 10:45:42;;;;;;;;;;;;;;;8.24;30.20;95937.10;1831740;78;20140;-63
2021/03/20 10:48:24;;;;;;;;;;;;;;;8.31;29.56;95941.01;1831787;78;20140;-63
2021/03/20 10:51:00;;;;;;;;;;;;;;;8.39;30.04;95936.58;1831964;78;20141;-63
2021/03/20 10:53:40;;;;;;;;;;;;;;;8.68;29.48;95939.55;1831802;78;20423;-63
2021/03/20 10:56:29;;;;;;;;;;;;;;;8.55;29.15;95942.25;1830983;78;20140;-63
2021/03/20 10:58:58;;;;;;;;;;;;;;;8.60;27.93;95936.97;1831727;78;20136;-63
2021/03/20 11:01:32;;;;;;;;;;;;;;;8.79;28.57;95949.11;1831959;78;20116;-63
2021/03/20 11:04:01;;;;;;;;;;;;;;;8.31;28.93;95938.37;1831941;78;20137;-63
2021/03/20 11:06:31;;;;;;;;;;;;;;;8.03;28.88;95944.60;1831710;78;20137;-63
2021/03/20 11:09:17;;;;;;;;;;;;;;;8.73;30.87;95933.38;1831780;78;20401;-63
2021/03/20 11:11:44;;;;;;;;;;;;;;;9.17;29.79;95930.90;1831460;78;20144;-63
2021/03/20 11:14:15;;;;;;;;;;;;;;;9.46;28.79;95928.00;1804443;78;20155;-63
2021/03/20 11:16:49;;;;;;;;;;;;;;;9.49;26.76;95926.66;1829410;78;20141;-63
2021/03/20 11:19:29;;;;;;;;;;;;;;;10.19;26.73;95915.82;1815860;78;20141;-63
2021/03/20 11:22:04;;;;;;;;;;;;;;;10.07;26.35;95910.69;1829418;78;20413;-61
2021/03/20 11:24:35;;;;;;;;;;;;;;;10.76;26.67;95908.95;1795777;80;20142;-61
2021/03/20 11:27:37;;;;;;;;;;;;;;;11.09;23.87;95907.60;1795909;80;20133;-61
2021/03/20 11:30:14;;;;;;;;;;;;;;;10.46;25.84;95903.23;1795572;80;20141;-61
2021/03/20 11:32:44;;;;;;;;;;;;;;;10.34;26.72;95901.61;1795855;80;20136;-61
2021/03/20 11:35:16;;;;;;;;;;;;;;;10.09;26.73;95907.59;1796003;80;20184;-60
2021/03/20 11:37:45;;;;;;;;;;;;;;;9.97;26.37;95905.09;1795804;80;20137;-60
2021/03/20 11:40:31;;;;;;;;;;;;;;;9.62;26.37;95909.42;1795853;80;20121;-61
2021/03/20 11:43:03;;;;;;;;;;;;;;;9.76;26.45;95900.94;1795928;80;20400;-60
2021/03/20 11:45:36;;;;;;;;;;;;;;;9.70;26.97;95894.39;1795739;80;20129;-61
2021/03/20 11:48:23;;;;;;;;;;;;;;;9.95;27.07;95897.64;1795872;79;20141;-61
2021/03/20 11:50:57;;;;;;;;;;;;;;;9.86;27.54;95890.73;1795742;79;20137;-60
2021/03/20 11:53:26;;;;;;;;;;;;;;;9.64;27.92;95885.25;1795754;80;20161;-61
2021/03/20 11:55:55;;;;;;;;;;;;;;;10.14;27.43;95883.81;1795730;80;20118;-60
2021/03/20 11:58:34;;;;;;;;;;;;;;;10.76;25.62;95875.96;1795905;79;20172;-60
2021/03/20 12:01:22;;;;;;;;;;;;;;;11.09;26.16;95869.31;1796045;79;20126;-61
2021/03/20 12:03:51;;;;;;;;;;;;;;;11.42;23.49;95871.83;1796097;80;20145;-61
2021/03/20 12:06:22;;;;;;;;;;;;;;;12.16;23.28;95863.85;1795981;80;20149;-61
2021/03/20 12:08:54;;;;;;;;;;;;;;;12.11;25.24;95863.94;1795912;80;20407;-61
2021/03/20 12:11:42;;;;;;;;;;;;;;;12.64;24.20;95865.48;1795789;80;20244;-61
2021/03/20 12:14:30;;;;;;;;;;;;;;;12.18;24.96;95868.67;1795758;79;20407;-61
2021/03/20 12:17:06;;;;;;;;;;;;;;;12.00;23.61;95865.08;1790272;80;20121;-61
2021/03/20 12:19:54;;;;;;;;;;;;;;;11.32;22.94;95873.34;1795985;79;20391;-61
2021/03/20 12:22:44;;;;;;;;;;;;;;;10.83;24.20;95879.84;1795744;80;20579;-61
2021/03/20 12:25:34;;;;;;;;;;;;;;;10.02;24.59;95870.78;1796141;80;20129;-60
2021/03/20 12:28:24;;;;;;;;;;;;;;;9.13;26.73;95880.91;1795866;80;20128;-61
2021/03/20 12:31:11;;;;;;;;;;;;;;;8.47;27.54;95883.56;1793861;80;20137;-60
2021/03/20 12:33:48;;;;;;;;;;;;;;;8.30;27.43;95877.05;1795860;80;20418;-60
2021/03/20 12:36:29;;;;;;;;;;;;;;;8.99;27.71;95870.48;1795679;80;20121;-61
2021/03/20 12:38:57;;;;;;;;;;;;;;;9.19;28.00;95875.13;1773039;80;20152;-61
2021/03/20 12:41:27;;;;;;;;;;;;;;;10.05;25.96;95866.33;1795861;80;20149;-61
2021/03/20 12:44:07;;;;;;;;;;;;;;;10.51;27.43;95857.87;1795953;80;20407;-61
2021/03/20 12:46:38;;;;;;;;;;;;;;;9.95;27.24;95856.78;1795905;80;20154;-61
2021/03/20 12:49:06;;;;;;;;;;;;;;;9.31;26.75;95864.49;1795666;80;20128;-61
2021/03/20 12:51:34;;;;;;;;;;;;;;;9.20;27.83;95863.73;1795722;80;20141;-61
2021/03/20 12:54:02;;;;;;;;;;;;;;;10.04;27.66;95863.73;1795804;79;20411;-61
2021/03/20 12:56:29;;;;;;;;;;;;;;;10.56;27.74;95856.48;1795581;80;20137;-60
2021/03/20 12:58:57;;;;;;;;;;;;;;;10.35;26.82;95856.31;1795661;80;20153;-60
2021/03/20 13:01:24;;;;;;;;;;;;;;;9.61;26.99;95856.31;1796027;80;20125;-60
2021/03/20 13:03:53;;;;;;;;;;;;;;;8.98;28.49;95870.93;1795960;80;20149;-61
2021/03/20 13:06:22;;;;;;;;;;;;;;;8.26;30.00;95865.23;1796019;80;20164;-60
2021/03/20 13:08:49;;;;;;;;;;;;;;;7.72;30.33;95875.97;1795814;80;20418;-60
2021/03/20 13:11:25;;;;;;;;;;;;;;;7.31;31.23;95875.63;1795667;80;20406;-60
2021/03/20 13:13:54;;;;;;;;;;;;;;;7.01;32.42;95878.72;1795751;80;20149;-60
2021/03/20 13:16:21;;;;;;;;;;;;;;;6.50;32.90;95878.67;1795653;79;20133;-60
2021/03/20 13:18:50;;;;;;;;;;;;;;;6.29;35.05;95877.30;1795829;80;20131;-60
2021/03/20 13:21:18;;;;;;;;;;;;;;;6.02;35.23;95883.33;1782507;80;20124;-60
2021/03/20 13:23:46;;;;;;;;;;;;;;;5.86;35.66;95873.20;1796087;80;20491;-60
2021/03/20 13:26:14;;;;;;;;;;;;;;;5.88;35.05;95876.71;1796216;80;20122;-60
2021/03/20 13:28:42;;;;;;;;;;;;;;;6.16;35.62;95874.22;1795759;80;20117;-60
2021/03/20 13:31:11;;;;;;;;;;;;;;;7.44;35.56;95865.98;1795743;80;20130;-60
2021/03/20 13:33:38;;;;;;;;;;;;;;;9.00;31.75;95865.67;1795721;80;20157;-61
2021/03/20 13:36:07;;;;;;;;;;;;;;;10.01;28.16;95854.09;1795872;80;20380;-60